createdAt,value
2019-01-11T00:01:47.500Z,0.10
2019-01-11T00:04:15.823Z,0.00
2019-01-11T00:06:44.111Z,0.30
2019-01-11T00:09:12.435Z,0.10
2019-01-11T00:11:40.427Z,0.10
2019-01-11T00:14:08.393Z,0.10
2019-01-11T00:16:36.701Z,0.10
2019-01-11T00:19:07.149Z,0.00
2019-01-11T00:21:35.164Z,0.00
2019-01-11T00:24:03.854Z,0.00
2019-01-11T00:26:32.441Z,0.00
2019-01-11T00:29:00.832Z,0.20
2019-01-11T00:31:28.856Z,0.00
2019-01-11T00:33:57.769Z,0.00
2019-01-11T00:36:25.970Z,0.00
2019-01-11T00:38:53.918Z,0.00
2019-01-11T00:41:22.256Z,0.30
2019-01-11T00:43:50.303Z,-0.10
2019-01-11T00:46:18.291Z,-0.10
2019-01-11T00:48:47.967Z,-0.10
2019-01-11T00:51:16.650Z,-0.10
2019-01-11T00:53:44.629Z,-0.10
2019-01-11T00:58:41.229Z,0.00
2019-01-11T01:01:09.150Z,0.10
2019-01-11T01:03:37.111Z,-0.10
2019-01-11T01:06:06.291Z,0.10
2019-01-11T01:08:34.592Z,-0.10
2019-01-11T01:11:02.773Z,-0.50
2019-01-11T01:13:30.813Z,-0.20
2019-01-11T01:15:59.118Z,-0.20
2019-01-11T01:18:27.158Z,-0.20
2019-01-11T01:20:57.088Z,-0.20
2019-01-11T01:23:25.474Z,0.40
2019-01-11T01:25:53.446Z,-0.70
2019-01-11T01:28:22.328Z,-0.70
2019-01-11T01:30:50.396Z,-0.20
2019-01-11T01:33:18.380Z,-0.30
2019-01-11T01:35:46.939Z,-0.30
2019-01-11T01:38:14.945Z,-0.50
2019-01-11T01:40:44.011Z,-0.10
2019-01-11T01:43:12.586Z,-0.50
2019-01-11T01:45:41.472Z,-0.60
2019-01-11T01:48:10.073Z,-0.10
2019-01-11T01:50:38.103Z,-0.20
2019-01-11T01:53:06.097Z,-0.40
2019-01-11T01:55:34.801Z,-0.60
2019-01-11T01:58:03.082Z,-0.10
2019-01-11T02:00:31.117Z,0.00
2019-01-11T02:03:00.365Z,0.10
2019-01-11T02:05:28.386Z,0.00
2019-01-11T02:07:56.698Z,0.00
2019-01-11T02:10:24.691Z,0.00
2019-01-11T02:12:53.187Z,0.00
2019-01-11T02:15:22.098Z,0.00
2019-01-11T02:17:50.025Z,-0.10
2019-01-11T02:20:18.442Z,-0.60
2019-01-11T02:22:46.480Z,-0.10
2019-01-11T02:25:17.493Z,-0.50
2019-01-11T02:27:45.682Z,-0.10
2019-01-11T02:30:22.300Z,0.00
2019-01-11T02:32:53.004Z,-0.30
2019-01-11T02:35:21.092Z,-0.40
2019-01-11T02:37:51.186Z,-0.40
2019-01-11T02:40:21.087Z,0.40
2019-01-11T02:42:49.508Z,-0.50
2019-01-11T02:45:19.121Z,-0.60
2019-01-11T02:47:47.263Z,-0.60
2019-01-11T02:50:16.587Z,-0.80
2019-01-11T02:52:45.080Z,-0.60
2019-01-11T02:55:13.045Z,-0.60
2019-01-11T02:57:41.401Z,-0.60
2019-01-11T03:00:19.170Z,-1.00
2019-01-11T03:02:48.487Z,-0.60
2019-01-11T03:05:17.117Z,-0.50
2019-01-11T03:07:45.529Z,-0.50
2019-01-11T03:10:19.172Z,-0.40
2019-01-11T03:12:47.513Z,-0.30
2019-01-11T03:15:16.646Z,-0.50
2019-01-11T03:17:45.745Z,-0.50
2019-01-11T03:20:14.372Z,-0.50
2019-01-11T03:22:43.312Z,-0.50
2019-01-11T03:25:12.015Z,-0.40
2019-01-11T03:27:40.312Z,-0.40
2019-01-11T03:30:15.408Z,-0.40
2019-01-11T03:32:43.644Z,-0.40
2019-01-11T03:35:15.168Z,-0.40
2019-01-11T03:37:48.541Z,-0.30
2019-01-11T03:40:19.069Z,-0.30
2019-01-11T03:42:48.470Z,-0.30
2019-01-11T03:45:17.769Z,-0.30
2019-01-11T03:47:45.735Z,-0.30
2019-01-11T03:50:14.872Z,-0.30
2019-01-11T03:52:43.197Z,-0.20
2019-01-11T03:55:13.673Z,0.00
2019-01-11T03:57:42.089Z,-0.20
2019-01-11T04:00:22.521Z,-0.50
2019-01-11T04:02:51.010Z,-0.20
2019-01-11T04:05:20.231Z,-0.10
2019-01-11T04:07:49.192Z,0.00
2019-01-11T04:10:20.313Z,-0.60
2019-01-11T04:12:49.025Z,-0.20
2019-01-11T04:15:19.142Z,-0.20
2019-01-11T04:17:57.177Z,-0.10
2019-01-11T04:22:55.782Z,-0.20
2019-01-11T04:25:25.979Z,-0.20
2019-01-11T04:27:54.399Z,-0.20
2019-01-11T04:30:22.585Z,-0.20
2019-01-11T04:32:51.598Z,-0.20
2019-01-11T04:35:19.772Z,0.00
2019-01-11T04:37:47.897Z,-0.10
2019-01-11T04:40:18.190Z,-0.60
2019-01-11T04:42:46.705Z,-1.00
2019-01-11T04:45:14.730Z,0.10
2019-01-11T04:47:43.065Z,-0.10
2019-01-11T04:50:16.971Z,0.00
2019-01-11T04:52:46.212Z,0.00
2019-01-11T04:55:14.853Z,-0.10
2019-01-11T04:57:43.059Z,-0.10
2019-01-11T05:02:42.833Z,-0.20
2019-01-11T05:05:11.163Z,-0.10
2019-01-11T05:07:40.381Z,-0.10
2019-01-11T05:10:10.062Z,0.10
2019-01-11T05:12:38.402Z,-0.30
2019-01-11T05:15:06.665Z,0.00
2019-01-11T05:17:34.676Z,0.10
2019-01-11T05:20:05.277Z,0.20
2019-01-11T05:22:34.537Z,0.40
2019-01-11T05:27:30.701Z,0.40
2019-01-11T05:29:59.302Z,0.40
2019-01-11T05:32:28.605Z,0.20
2019-01-11T05:34:56.770Z,0.40
2019-01-11T05:37:26.290Z,0.20
2019-01-11T05:39:54.622Z,0.10
2019-01-11T05:42:22.915Z,0.60
2019-01-11T05:44:50.847Z,0.10
2019-01-11T05:47:20.769Z,0.20
2019-01-11T05:49:48.795Z,0.10
2019-01-11T05:52:17.239Z,0.10
2019-01-11T05:54:45.247Z,0.10
2019-01-11T05:57:13.609Z,-0.10
2019-01-11T05:59:42.098Z,0.00
2019-01-11T06:02:10.421Z,-0.10
2019-01-11T06:04:49.944Z,-0.10
2019-01-11T06:07:36.150Z,0.10
2019-01-11T06:10:06.435Z,0.10
2019-01-11T06:15:03.552Z,0.00
2019-01-11T06:17:31.614Z,0.10
2019-01-11T06:19:59.573Z,0.20
2019-01-11T06:22:28.147Z,0.20
2019-01-11T06:24:56.145Z,0.30
2019-01-11T06:27:24.248Z,0.00
2019-01-11T06:32:24.077Z,0.10
2019-01-11T06:34:52.653Z,0.20
2019-01-11T06:37:20.967Z,0.30
2019-01-11T06:39:49.245Z,0.10
2019-01-11T06:42:26.455Z,0.00
2019-01-11T06:44:55.027Z,0.00
2019-01-11T06:47:23.652Z,-0.30
2019-01-11T06:49:51.959Z,0.00
2019-01-11T06:52:20.372Z,0.30
2019-01-11T06:54:48.681Z,0.10
2019-01-11T06:57:17.004Z,0.00
2019-01-11T06:59:44.963Z,0.20
2019-01-11T07:02:12.902Z,0.50
2019-01-11T07:04:41.929Z,0.60
2019-01-11T07:07:09.941Z,0.50
2019-01-11T07:09:37.917Z,0.40
2019-01-11T07:12:07.903Z,0.40
2019-01-11T07:14:35.979Z,0.50
2019-01-11T07:17:05.303Z,0.30
2019-01-11T07:22:02.368Z,0.20
2019-01-11T07:24:30.487Z,0.20
2019-01-11T07:26:59.200Z,0.10
2019-01-11T07:29:27.170Z,0.20
2019-01-11T07:31:59.134Z,0.40
2019-01-11T07:34:28.044Z,0.50
2019-01-11T07:39:30.188Z,0.60
2019-01-11T07:41:58.397Z,0.50
2019-01-11T07:46:56.248Z,0.60
2019-01-11T07:49:24.582Z,0.40
2019-01-11T07:51:52.522Z,0.20
2019-01-11T07:54:20.586Z,0.30
2019-01-11T07:56:48.802Z,0.50
2019-01-11T07:59:18.132Z,-0.30
2019-01-11T08:01:46.128Z,0.20
2019-01-11T08:04:14.121Z,0.30
2019-01-11T08:06:42.181Z,0.20
2019-01-11T08:09:10.226Z,0.20
2019-01-11T08:11:40.003Z,0.40
2019-01-11T08:14:08.441Z,-0.20
2019-01-11T08:16:37.916Z,-0.40
2019-01-11T08:19:05.927Z,0.00
2019-01-11T08:21:34.190Z,0.00
2019-01-11T08:24:02.521Z,0.00
2019-01-11T08:26:30.536Z,0.20
2019-01-11T08:28:58.479Z,-0.40
2019-01-11T08:31:26.749Z,-0.10
2019-01-11T08:33:54.850Z,-0.30
2019-01-11T08:36:22.819Z,0.10
2019-01-11T08:38:51.122Z,0.10
2019-01-11T08:43:47.317Z,0.00
2019-01-11T08:46:16.626Z,-0.10
2019-01-11T08:48:44.888Z,0.20
2019-01-11T08:51:12.844Z,-0.40
2019-01-11T08:53:41.069Z,-0.10
2019-01-11T08:56:09.350Z,0.50
2019-01-11T08:58:39.224Z,0.00
2019-01-11T09:01:07.330Z,0.20
2019-01-11T09:03:36.386Z,0.00
2019-01-11T09:06:05.374Z,0.30
2019-01-11T09:08:33.471Z,0.40
2019-01-11T09:11:01.738Z,0.10
2019-01-11T09:13:30.160Z,0.40
2019-01-11T09:15:58.304Z,0.40
2019-01-11T09:18:33.745Z,0.40
2019-01-11T09:21:02.160Z,0.40
2019-01-11T09:23:30.402Z,0.40
2019-01-11T09:25:58.659Z,0.60
2019-01-11T09:28:26.834Z,0.60
2019-01-11T09:30:54.798Z,0.80
2019-01-11T09:33:22.758Z,0.30
2019-01-11T09:35:50.702Z,0.50
2019-01-11T09:38:18.959Z,0.00
2019-01-11T09:40:47.368Z,0.70
2019-01-11T09:43:15.502Z,0.10
2019-01-11T09:45:43.475Z,0.70
2019-01-11T09:48:12.328Z,1.00
2019-01-11T09:50:40.567Z,0.90
2019-01-11T09:53:08.573Z,0.90
2019-01-11T09:55:36.774Z,0.70
2019-01-11T09:58:04.741Z,1.60
2019-01-11T10:00:32.815Z,0.50
2019-01-11T10:03:06.905Z,0.80
2019-01-11T10:05:34.852Z,0.80
2019-01-11T10:08:03.143Z,0.30
2019-01-11T10:10:32.057Z,0.70
2019-01-11T10:13:00.312Z,0.60
2019-01-11T10:15:28.812Z,0.60
2019-01-11T10:17:56.775Z,0.70
2019-01-11T10:20:25.092Z,0.70
2019-01-11T10:22:54.048Z,0.80
2019-01-11T10:25:23.656Z,0.40
2019-01-11T10:27:51.883Z,0.80
2019-01-11T10:30:21.797Z,1.40
2019-01-11T10:32:50.043Z,0.80
2019-01-11T10:35:18.389Z,1.20
2019-01-11T10:37:46.371Z,1.20
2019-01-11T10:40:16.104Z,1.20
2019-01-11T10:42:44.800Z,1.30
2019-01-11T10:45:19.701Z,1.20
2019-01-11T10:47:47.718Z,1.30
2019-01-11T10:50:16.487Z,1.20
2019-01-11T10:52:44.521Z,0.90
2019-01-11T10:55:14.933Z,0.70
2019-01-11T10:57:43.365Z,0.40
2019-01-11T11:00:25.429Z,0.40
2019-01-11T11:02:55.065Z,0.50
2019-01-11T11:05:23.058Z,1.10
2019-01-11T11:07:51.262Z,1.10
2019-01-11T11:10:19.839Z,1.10
2019-01-11T11:12:48.293Z,1.00
2019-01-11T11:15:17.304Z,0.80
2019-01-11T11:17:45.838Z,0.90
2019-01-11T11:20:16.083Z,0.80
2019-01-11T11:22:44.190Z,0.90
2019-01-11T11:25:15.482Z,1.00
2019-01-11T11:27:43.579Z,0.90
2019-01-11T11:30:13.187Z,1.10
2019-01-11T11:32:54.841Z,1.10
2019-01-11T11:35:23.837Z,1.00
2019-01-11T11:37:52.350Z,0.60
2019-01-11T11:40:20.358Z,1.10
2019-01-11T11:42:49.298Z,1.20
2019-01-11T11:45:17.305Z,1.20
2019-01-11T11:47:46.244Z,1.20
2019-01-11T11:50:14.491Z,1.30
2019-01-11T11:52:43.119Z,1.20
2019-01-11T11:55:11.108Z,1.20
2019-01-11T11:57:40.161Z,1.30
2019-01-11T12:00:12.406Z,1.20
2019-01-11T12:02:40.338Z,1.20
2019-01-11T12:05:08.758Z,1.40
2019-01-11T12:07:36.764Z,1.50
2019-01-11T12:10:05.960Z,1.20
2019-01-11T12:12:34.174Z,0.90
2019-01-11T12:15:02.451Z,1.40
2019-01-11T12:17:30.842Z,1.40
2019-01-11T12:19:58.914Z,1.40
2019-01-11T12:22:26.875Z,1.40
2019-01-11T12:24:54.876Z,1.30
2019-01-11T12:27:23.933Z,1.20
2019-01-11T12:29:51.955Z,1.10
2019-01-11T12:32:20.209Z,1.30
2019-01-11T12:34:48.424Z,0.80
2019-01-11T12:37:16.508Z,1.20
2019-01-11T12:39:44.443Z,1.20
2019-01-11T12:42:13.367Z,1.10
2019-01-11T12:44:41.698Z,1.00
2019-01-11T12:47:09.986Z,0.80
2019-01-11T12:49:37.957Z,0.80
2019-01-11T12:52:07.179Z,0.70
2019-01-11T12:54:35.538Z,0.80
2019-01-11T12:57:03.686Z,0.80
2019-01-11T12:59:32.051Z,1.00
2019-01-11T13:04:28.245Z,0.70
2019-01-11T13:09:24.256Z,0.80
2019-01-11T13:11:52.234Z,0.70
2019-01-11T13:16:48.868Z,1.10
2019-01-11T13:19:17.928Z,0.90
2019-01-11T13:21:45.874Z,1.40
2019-01-11T13:26:41.854Z,0.70
2019-01-11T13:29:10.001Z,0.70
2019-01-11T13:31:38.331Z,0.80
2019-01-11T13:34:06.943Z,0.70
2019-01-11T13:36:35.259Z,0.80
2019-01-11T13:39:08.732Z,0.90
2019-01-11T13:41:38.452Z,0.90
2019-01-11T13:44:06.387Z,0.70
2019-01-11T13:46:34.647Z,1.00
2019-01-11T13:49:02.817Z,0.90
2019-01-11T13:51:30.881Z,1.00
2019-01-11T13:53:58.891Z,1.00
2019-01-11T13:56:26.937Z,0.90
2019-01-11T13:58:54.903Z,1.00
2019-01-11T14:01:23.174Z,1.10
2019-01-11T14:03:51.189Z,1.00
2019-01-11T14:06:19.525Z,1.00
2019-01-11T14:08:47.477Z,1.20
2019-01-11T14:11:15.418Z,0.90
2019-01-11T14:13:43.395Z,1.00
2019-01-11T14:16:11.432Z,0.90
2019-01-11T14:18:39.487Z,0.90
2019-01-11T14:21:07.502Z,0.90
2019-01-11T14:23:35.433Z,0.60
2019-01-11T14:26:03.392Z,0.90
2019-01-11T14:28:31.752Z,0.80
2019-01-11T14:31:00.067Z,1.00
2019-01-11T14:33:28.324Z,1.00
2019-01-11T14:35:56.342Z,0.80
2019-01-11T14:38:25.286Z,0.80
2019-01-11T14:40:53.543Z,0.80
2019-01-11T14:43:21.582Z,0.70
2019-01-11T14:48:17.746Z,0.80
2019-01-11T14:50:46.064Z,0.30
2019-01-11T14:53:14.034Z,1.00
2019-01-11T14:55:42.299Z,1.10
2019-01-11T14:58:10.282Z,0.70
2019-01-11T15:00:38.826Z,0.90
2019-01-11T15:03:07.107Z,0.70
2019-01-11T15:05:35.487Z,0.70
2019-01-11T15:08:03.861Z,0.80
2019-01-11T15:10:31.864Z,0.70
2019-01-11T15:12:59.835Z,0.60
2019-01-11T15:15:28.333Z,1.10
2019-01-11T15:17:56.549Z,0.60
2019-01-11T15:20:24.887Z,0.70
2019-01-11T15:22:52.862Z,0.70
2019-01-11T15:25:20.888Z,0.70
2019-01-11T15:27:48.862Z,0.60
2019-01-11T15:30:19.292Z,0.50
2019-01-11T15:32:47.762Z,0.30
2019-01-11T15:35:16.528Z,0.60
2019-01-11T15:37:44.875Z,0.60
2019-01-11T15:40:36.516Z,0.60
2019-01-11T15:43:02.536Z,0.60
2019-01-11T15:45:30.503Z,0.80
2019-01-11T15:47:58.426Z,0.80
2019-01-11T15:50:56.625Z,0.60
2019-01-11T15:53:34.634Z,0.60
2019-01-11T15:56:02.681Z,0.30
2019-01-11T15:58:31.023Z,0.60
2019-01-11T16:00:59.343Z,0.60
2019-01-11T16:03:27.360Z,0.20
2019-01-11T16:06:34.072Z,0.50
2019-01-11T16:09:24.094Z,0.50
2019-01-11T16:12:06.519Z,0.60
2019-01-11T16:17:29.987Z,0.80
2019-01-11T16:19:57.946Z,0.40
2019-01-11T16:22:25.895Z,0.70
2019-01-11T16:24:53.893Z,0.60
2019-01-11T16:27:21.849Z,0.60
2019-01-11T16:29:49.850Z,0.60
2019-01-11T16:32:17.837Z,0.20
2019-01-11T16:34:46.470Z,0.60
2019-01-11T16:39:42.320Z,0.80
2019-01-11T16:42:10.585Z,0.70
2019-01-11T16:44:38.841Z,0.70
2019-01-11T16:47:06.823Z,0.70
2019-01-11T16:49:34.767Z,0.90
2019-01-11T16:52:02.745Z,0.40
2019-01-11T16:54:31.038Z,0.60
2019-01-11T16:56:59.280Z,0.80
2019-01-11T16:59:27.245Z,0.60
2019-01-11T17:01:57.047Z,0.30
2019-01-11T17:04:25.005Z,0.50
2019-01-11T17:06:52.997Z,0.50
2019-01-11T17:09:21.495Z,0.40
2019-01-11T17:11:49.661Z,0.50
2019-01-11T17:14:17.829Z,0.50
2019-01-11T17:16:46.278Z,0.40
2019-01-11T17:19:15.128Z,0.60
2019-01-11T17:21:43.098Z,0.50
2019-01-11T17:24:11.205Z,0.00
2019-01-11T17:26:39.390Z,0.50
2019-01-11T17:29:07.888Z,0.50
2019-01-11T17:31:35.895Z,0.50
2019-01-11T17:34:03.965Z,0.50
2019-01-11T17:36:33.100Z,0.60
2019-01-11T17:39:01.314Z,0.60
2019-01-11T17:41:29.585Z,0.40
2019-01-11T17:43:58.034Z,0.40
2019-01-11T17:46:26.100Z,0.60
2019-01-11T17:48:54.199Z,0.60
2019-01-11T17:51:22.359Z,0.80
2019-01-11T17:53:50.516Z,0.60
2019-01-11T17:56:18.453Z,0.60
2019-01-11T17:58:47.297Z,0.60
2019-01-11T18:01:16.386Z,0.60
2019-01-11T18:03:44.410Z,0.60
2019-01-11T18:06:12.674Z,0.80
2019-01-11T18:08:41.344Z,0.70
2019-01-11T18:11:09.677Z,0.20
2019-01-11T18:13:37.909Z,0.70
2019-01-11T18:16:06.378Z,0.70
2019-01-11T18:18:34.385Z,0.70
2019-01-11T18:21:02.439Z,0.80
2019-01-11T18:23:31.745Z,0.80
2019-01-11T18:26:00.055Z,0.80
2019-01-11T18:28:29.086Z,0.80
2019-01-11T18:30:58.972Z,0.50
2019-01-11T18:33:29.046Z,1.00
2019-01-11T18:35:57.316Z,0.90
2019-01-11T18:38:26.372Z,0.60
2019-01-11T18:40:54.706Z,0.90
2019-01-11T18:43:23.470Z,0.50
2019-01-11T18:45:52.150Z,1.00
2019-01-11T18:48:21.357Z,0.90
2019-01-11T18:50:49.994Z,0.90
2019-01-11T18:53:18.560Z,1.00
2019-01-11T18:55:46.604Z,1.10
2019-01-11T18:58:15.917Z,1.00
2019-01-11T19:03:12.119Z,1.20
2019-01-11T19:08:10.921Z,1.20
2019-01-11T19:10:39.369Z,1.20
2019-01-11T19:13:07.600Z,1.20
2019-01-11T19:18:03.840Z,1.20
2019-01-11T19:20:33.397Z,1.20
2019-01-11T19:25:30.396Z,1.20
2019-01-11T19:27:58.788Z,1.30
2019-01-11T19:30:29.101Z,1.30
2019-01-11T19:32:57.186Z,1.40
2019-01-11T19:35:25.296Z,1.30
2019-01-11T19:37:53.359Z,1.30
2019-01-11T19:40:21.725Z,1.30
2019-01-11T19:45:19.108Z,1.30
2019-01-11T19:47:47.337Z,1.50
2019-01-11T19:50:21.259Z,1.30
2019-01-11T19:52:50.298Z,1.30
2019-01-11T19:55:18.512Z,1.60
2019-01-11T19:57:46.800Z,1.40
2019-01-11T20:00:27.344Z,1.30
2019-01-11T20:02:56.220Z,1.20
2019-01-11T20:05:25.993Z,1.40
2019-01-11T20:07:54.585Z,1.30
2019-01-11T20:10:26.557Z,1.30
2019-01-11T20:12:55.434Z,1.30
2019-01-11T20:15:24.194Z,1.20
2019-01-11T20:17:52.390Z,1.20
2019-01-11T20:20:20.366Z,1.20
2019-01-11T20:22:48.553Z,1.30
2019-01-11T20:25:19.496Z,1.20
2019-01-11T20:27:49.150Z,1.00
2019-01-11T20:30:20.538Z,1.30
2019-01-11T20:32:49.103Z,1.30
2019-01-11T20:35:17.701Z,1.50
2019-01-11T20:37:46.269Z,1.10
2019-01-11T20:40:15.867Z,1.50
2019-01-11T20:42:44.649Z,1.50
2019-01-11T20:45:16.074Z,1.60
2019-01-11T20:47:44.026Z,1.50
2019-01-11T20:50:16.090Z,1.60
2019-01-11T20:52:45.118Z,1.70
2019-01-11T20:55:14.227Z,1.70
2019-01-11T20:57:42.548Z,1.80
2019-01-11T21:00:16.299Z,1.80
2019-01-11T21:02:45.007Z,1.80
2019-01-11T21:05:13.007Z,1.90
2019-01-11T21:07:41.221Z,1.80
2019-01-11T21:10:09.988Z,1.70
2019-01-11T21:12:38.286Z,1.70
2019-01-11T21:15:08.955Z,1.50
2019-01-11T21:17:37.023Z,1.70
2019-01-11T21:20:09.331Z,1.40
2019-01-11T21:22:37.368Z,1.70
2019-01-11T21:25:07.322Z,1.70
2019-01-11T21:27:35.364Z,1.60
2019-01-11T21:30:06.224Z,1.30
2019-01-11T21:32:34.265Z,2.10
2019-01-11T21:35:02.348Z,1.70
2019-01-11T21:37:30.405Z,2.00
2019-01-11T21:39:59.075Z,1.70
2019-01-11T21:42:27.761Z,1.70
2019-01-11T21:44:55.773Z,2.10
2019-01-11T21:47:24.339Z,1.70
2019-01-11T21:49:52.376Z,1.40
2019-01-11T21:52:20.460Z,1.90
2019-01-11T21:54:48.663Z,1.80
2019-01-11T21:57:16.874Z,1.90
2019-01-11T21:59:45.194Z,1.90
2019-01-11T22:02:13.181Z,1.80
2019-01-11T22:04:41.479Z,1.80
2019-01-11T22:07:09.810Z,1.30
2019-01-11T22:09:37.767Z,1.80
2019-01-11T22:12:05.798Z,2.00
2019-01-11T22:14:34.420Z,1.80
2019-01-11T22:17:02.872Z,1.80
2019-01-11T22:19:31.202Z,1.80
2019-01-11T22:21:59.491Z,1.80
2019-01-11T22:24:27.533Z,1.80
2019-01-11T22:26:57.854Z,1.40
2019-01-11T22:29:26.348Z,1.80
2019-01-11T22:31:54.363Z,2.00
2019-01-11T22:34:22.321Z,2.30
2019-01-11T22:36:52.293Z,1.90
2019-01-11T22:39:20.244Z,2.20
2019-01-11T22:41:48.324Z,1.80
2019-01-11T22:44:16.307Z,1.80
2019-01-11T22:46:45.251Z,1.80
2019-01-11T22:49:13.285Z,1.80
2019-01-11T22:51:41.350Z,1.90
2019-01-11T22:54:10.434Z,1.90
2019-01-11T22:56:38.567Z,2.00
2019-01-11T22:59:07.638Z,1.90
2019-01-11T23:02:22.221Z,2.00
2019-01-11T23:04:50.221Z,2.00
2019-01-11T23:07:47.373Z,2.00
2019-01-11T23:11:02.377Z,2.00
2019-01-11T23:13:30.409Z,1.90
2019-01-11T23:16:16.507Z,2.20
2019-01-11T23:18:46.555Z,2.00
2019-01-11T23:21:14.741Z,2.00
2019-01-11T23:23:42.717Z,2.00
2019-01-11T23:26:11.273Z,2.40
2019-01-11T23:28:39.327Z,1.80
2019-01-11T23:31:07.369Z,2.10
2019-01-11T23:33:35.486Z,2.10
2019-01-11T23:36:03.761Z,2.30
2019-01-11T23:38:31.802Z,2.20
2019-01-11T23:40:59.818Z,2.30
2019-01-11T23:43:28.283Z,2.30
2019-01-11T23:45:56.856Z,2.70
2019-01-11T23:48:24.894Z,2.90
2019-01-11T23:50:55.195Z,2.80
2019-01-11T23:53:23.408Z,2.80
2019-01-11T23:55:52.418Z,3.00
2019-01-11T23:58:20.403Z,2.70
